sensor_id;sensor_type;location;lat;lon;timestamp;temperature;humidity
50586;DHT22;36542;51.700;8.846;2023-10-13T00:01:24;15.70;99.90
50586;DHT22;36542;51.700;8.846;2023-10-13T00:03:50;15.70;99.90
50586;DHT22;36542;51.700;8.846;2023-10-13T00:06:19;15.60;99.90
50586;DHT22;36542;51.700;8.846;2023-10-13T00:08:46;15.60;99.90
50586;DHT22;36542;51.700;8.846;2023-10-13T00:11:12;15.50;99.90
50586;DHT22;36542;51.700;8.846;2023-10-13T00:13:38;15.50;99.90
50586;DHT22;36542;51.700;8.846;2023-10-13T00:16:20;15.50;99.90
50586;DHT22;36542;51.700;8.846;2023-10-13T00:18:53;15.60;99.90
50586;DHT22;36542;51.700;8.846;2023-10-13T00:21:23;15.60;99.90
50586;DHT22;36542;51.700;8.846;2023-10-13T00:23:59;15.70;99.90
50586;DHT22;36542;51.700;8.846;2023-10-13T00:26:32;15.70;99.90
50586;DHT22;36542;51.700;8.846;2023-10-13T00:29:02;15.70;99.90
50586;DHT22;36542;51.700;8.846;2023-10-13T00:31:44;15.80;99.90
50586;DHT22;36542;51.700;8.846;2023-10-13T00:34:14;15.90;99.90
50586;DHT22;36542;51.700;8.846;2023-10-13T00:36:40;15.90;99.90
50586;DHT22;36542;51.700;8.846;2023-10-13T00:39:35;15.90;99.90
50586;DHT22;36542;51.700;8.846;2023-10-13T00:42:03;15.90;99.90
50586;DHT22;36542;51.700;8.846;2023-10-13T00:44:33;15.80;99.90
50586;DHT22;36542;51.700;8.846;2023-10-13T00:47:09;15.80;99.90
50586;DHT22;36542;51.700;8.846;2023-10-13T00:49:36;15.80;99.90
50586;DHT22;36542;51.700;8.846;2023-10-13T00:52:06;15.90;99.90
50586;DHT22;36542;51.700;8.846;2023-10-13T00:54:36;15.80;99.90
50586;DHT22;36542;51.700;8.846;2023-10-13T00:57:04;15.80;99.90
50586;DHT22;36542;51.700;8.846;2023-10-13T00:59:37;15.80;99.90
50586;DHT22;36542;51.700;8.846;2023-10-13T01:02:03;15.80;99.90
50586;DHT22;36542;51.700;8.846;2023-10-13T01:04:49;15.80;99.90
50586;DHT22;36542;51.700;8.846;2023-10-13T01:07:15;15.80;99.90
50586;DHT22;36542;51.700;8.846;2023-10-13T01:09:47;15.80;99.90
50586;DHT22;36542;51.700;8.846;2023-10-13T01:12:13;15.90;99.90
50586;DHT22;36542;51.700;8.846;2023-10-13T01:14:40;15.90;99.90
50586;DHT22;36542;51.700;8.846;2023-10-13T01:17:05;15.90;99.90
50586;DHT22;36542;51.700;8.846;2023-10-13T01:19:36;15.90;99.90
50586;DHT22;36542;51.700;8.846;2023-10-13T01:22:04;15.90;99.90
50586;DHT22;36542;51.700;8.846;2023-10-13T01:24:32;15.90;99.90
50586;DHT22;36542;51.700;8.846;2023-10-13T01:27:01;15.90;99.90
50586;DHT22;36542;51.700;8.846;2023-10-13T01:29:40;15.90;99.90
50586;DHT22;36542;51.700;8.846;2023-10-13T01:32:05;15.80;99.90
50586;DHT22;36542;51.700;8.846;2023-10-13T01:34:31;15.80;99.90
50586;DHT22;36542;51.700;8.846;2023-10-13T01:36:58;15.80;99.90
50586;DHT22;36542;51.700;8.846;2023-10-13T01:39:30;15.80;99.90
50586;DHT22;36542;51.700;8.846;2023-10-13T01:41:56;15.80;99.90
50586;DHT22;36542;51.700;8.846;2023-10-13T01:44:22;15.80;99.90
50586;DHT22;36542;51.700;8.846;2023-10-13T01:46:48;15.80;99.90
50586;DHT22;36542;51.700;8.846;2023-10-13T01:49:14;15.80;99.90
50586;DHT22;36542;51.700;8.846;2023-10-13T01:51:42;15.80;99.90
50586;DHT22;36542;51.700;8.846;2023-10-13T01:54:08;15.80;99.90
50586;DHT22;36542;51.700;8.846;2023-10-13T01:56:38;15.80;99.90
50586;DHT22;36542;51.700;8.846;2023-10-13T01:59:10;15.90;99.90
50586;DHT22;36542;51.700;8.846;2023-10-13T02:01:36;15.90;99.90
50586;DHT22;36542;51.700;8.846;2023-10-13T02:04:02;15.90;99.90
50586;DHT22;36542;51.700;8.846;2023-10-13T02:06:33;15.90;99.90
50586;DHT22;36542;51.700;8.846;2023-10-13T02:09:07;15.90;99.90
50586;DHT22;36542;51.700;8.846;2023-10-13T02:11:43;15.90;99.90
50586;DHT22;36542;51.700;8.846;2023-10-13T02:14:13;15.90;99.90
50586;DHT22;36542;51.700;8.846;2023-10-13T02:16:41;16.00;99.90
50586;DHT22;36542;51.700;8.846;2023-10-13T02:19:07;16.00;99.90
50586;DHT22;36542;51.700;8.846;2023-10-13T02:21:34;16.00;99.90
50586;DHT22;36542;51.700;8.846;2023-10-13T02:24:07;16.00;99.90
50586;DHT22;36542;51.700;8.846;2023-10-13T02:26:40;16.00;99.90
50586;DHT22;36542;51.700;8.846;2023-10-13T02:29:06;16.00;99.90
50586;DHT22;36542;51.700;8.846;2023-10-13T02:31:40;16.00;99.90
50586;DHT22;36542;51.700;8.846;2023-10-13T02:34:06;16.10;99.90
50586;DHT22;36542;51.700;8.846;2023-10-13T02:36:39;16.10;99.90
50586;DHT22;36542;51.700;8.846;2023-10-13T02:39:19;16.10;99.90
50586;DHT22;36542;51.700;8.846;2023-10-13T02:41:52;16.10;99.90
50586;DHT22;36542;51.700;8.846;2023-10-13T02:44:20;16.10;99.90
50586;DHT22;36542;51.700;8.846;2023-10-13T02:46:54;16.10;99.90
50586;DHT22;36542;51.700;8.846;2023-10-13T02:49:27;16.10;99.90
50586;DHT22;36542;51.700;8.846;2023-10-13T02:51:56;16.10;99.90
50586;DHT22;36542;51.700;8.846;2023-10-13T02:54:24;16.10;99.90
50586;DHT22;36542;51.700;8.846;2023-10-13T02:56:55;16.10;99.90
50586;DHT22;36542;51.700;8.846;2023-10-13T02:59:25;16.10;99.90
50586;DHT22;36542;51.700;8.846;2023-10-13T03:02:03;16.10;99.90
50586;DHT22;36542;51.700;8.846;2023-10-13T03:04:54;16.20;99.90
50586;DHT22;36542;51.700;8.846;2023-10-13T03:07:28;16.20;99.90
50586;DHT22;36542;51.700;8.846;2023-10-13T03:09:55;16.20;99.90
50586;DHT22;36542;51.700;8.846;2023-10-13T03:12:23;16.20;99.90
50586;DHT22;36542;51.700;8.846;2023-10-13T03:14:50;16.20;99.90
50586;DHT22;36542;51.700;8.846;2023-10-13T03:17:23;16.20;99.90
50586;DHT22;36542;51.700;8.846;2023-10-13T03:19:59;16.20;99.90
50586;DHT22;36542;51.700;8.846;2023-10-13T03:22:25;16.20;99.90
50586;DHT22;36542;51.700;8.846;2023-10-13T03:25:00;16.20;99.90
50586;DHT22;36542;51.700;8.846;2023-10-13T03:27:31;16.20;99.90
50586;DHT22;36542;51.700;8.846;2023-10-13T03:30:13;16.20;99.90
50586;DHT22;36542;51.700;8.846;2023-10-13T03:32:43;16.20;99.90
50586;DHT22;36542;51.700;8.846;2023-10-13T03:35:11;16.20;99.90
50586;DHT22;36542;51.700;8.846;2023-10-13T03:37:53;16.20;99.90
50586;DHT22;36542;51.700;8.846;2023-10-13T03:40:19;16.20;99.90
50586;DHT22;36542;51.700;8.846;2023-10-13T03:42:45;16.20;99.90
50586;DHT22;36542;51.700;8.846;2023-10-13T03:45:23;16.20;99.90
50586;DHT22;36542;51.700;8.846;2023-10-13T03:47:50;16.20;99.90
50586;DHT22;36542;51.700;8.846;2023-10-13T03:50:17;16.30;99.90
50586;DHT22;36542;51.700;8.846;2023-10-13T03:52:57;16.30;99.90
50586;DHT22;36542;51.700;8.846;2023-10-13T03:55:26;16.30;99.90
50586;DHT22;36542;51.700;8.846;2023-10-13T03:57:58;16.40;99.90
50586;DHT22;36542;51.700;8.846;2023-10-13T04:00:25;16.40;99.90
50586;DHT22;36542;51.700;8.846;2023-10-13T04:02:52;16.40;99.90
50586;DHT22;36542;51.700;8.846;2023-10-13T04:05:27;16.40;99.90
50586;DHT22;36542;51.700;8.846;2023-10-13T04:08:26;16.40;99.90
50586;DHT22;36542;51.700;8.846;2023-10-13T04:10:58;16.40;99.90
50586;DHT22;36542;51.700;8.846;2023-10-13T04:13:23;16.40;99.90
50586;DHT22;36542;51.700;8.846;2023-10-13T04:16:08;16.40;99.90
50586;DHT22;36542;51.700;8.846;2023-10-13T04:19:00;16.40;99.90
50586;DHT22;36542;51.700;8.846;2023-10-13T04:21:26;16.40;99.90
50586;DHT22;36542;51.700;8.846;2023-10-13T04:24:10;16.50;99.90
50586;DHT22;36542;51.700;8.846;2023-10-13T04:26:53;16.40;99.90
50586;DHT22;36542;51.700;8.846;2023-10-13T04:29:38;16.40;99.90
50586;DHT22;36542;51.700;8.846;2023-10-13T04:32:22;16.40;99.90
50586;DHT22;36542;51.700;8.846;2023-10-13T04:34:58;16.40;99.90
50586;DHT22;36542;51.700;8.846;2023-10-13T04:37:36;16.40;99.90
50586;DHT22;36542;51.700;8.846;2023-10-13T04:40:26;16.40;99.90
50586;DHT22;36542;51.700;8.846;2023-10-13T04:42:54;16.40;99.90
50586;DHT22;36542;51.700;8.846;2023-10-13T04:45:22;16.40;99.90
50586;DHT22;36542;51.700;8.846;2023-10-13T04:48:00;16.40;99.90
50586;DHT22;36542;51.700;8.846;2023-10-13T04:50:46;16.40;99.90
50586;DHT22;36542;51.700;8.846;2023-10-13T04:53:16;16.40;99.90
50586;DHT22;36542;51.700;8.846;2023-10-13T04:56:02;16.40;99.90
50586;DHT22;36542;51.700;8.846;2023-10-13T04:58:29;16.40;99.90
50586;DHT22;36542;51.700;8.846;2023-10-13T05:01:03;16.40;99.90
50586;DHT22;36542;51.700;8.846;2023-10-13T05:03:48;16.30;99.90
50586;DHT22;36542;51.700;8.846;2023-10-13T05:06:37;16.20;99.90
50586;DHT22;36542;51.700;8.846;2023-10-13T05:09:09;16.10;99.90
50586;DHT22;36542;51.700;8.846;2023-10-13T05:11:53;16.20;99.90
50586;DHT22;36542;51.700;8.846;2023-10-13T05:14:38;16.20;99.90
50586;DHT22;36542;51.700;8.846;2023-10-13T05:17:22;16.10;99.90
50586;DHT22;36542;51.700;8.846;2023-10-13T05:20:07;16.00;99.90
50586;DHT22;36542;51.700;8.846;2023-10-13T05:22:51;16.00;99.90
50586;DHT22;36542;51.700;8.846;2023-10-13T05:25:36;15.90;99.90
50586;DHT22;36542;51.700;8.846;2023-10-13T05:28:20;15.80;99.90
50586;DHT22;36542;51.700;8.846;2023-10-13T05:31:04;15.80;99.90
50586;DHT22;36542;51.700;8.846;2023-10-13T05:33:48;15.70;99.90
50586;DHT22;36542;51.700;8.846;2023-10-13T05:36:33;15.80;99.90
50586;DHT22;36542;51.700;8.846;2023-10-13T05:39:17;15.70;99.90
50586;DHT22;36542;51.700;8.846;2023-10-13T05:42:01;15.70;99.90
50586;DHT22;36542;51.700;8.846;2023-10-13T05:44:45;15.80;99.90
50586;DHT22;36542;51.700;8.846;2023-10-13T05:47:30;15.80;99.90
50586;DHT22;36542;51.700;8.846;2023-10-13T05:50:11;15.80;99.90
50586;DHT22;36542;51.700;8.846;2023-10-13T05:52:46;15.90;99.90
50586;DHT22;36542;51.700;8.846;2023-10-13T05:55:25;15.90;99.90
50586;DHT22;36542;51.700;8.846;2023-10-13T05:58:10;15.90;99.90
50586;DHT22;36542;51.700;8.846;2023-10-13T06:00:55;16.00;99.90
50586;DHT22;36542;51.700;8.846;2023-10-13T06:03:40;16.00;99.90
50586;DHT22;36542;51.700;8.846;2023-10-13T06:06:24;16.10;99.90
50586;DHT22;36542;51.700;8.846;2023-10-13T06:09:08;16.10;99.90
50586;DHT22;36542;51.700;8.846;2023-10-13T06:11:52;16.20;99.90
50586;DHT22;36542;51.700;8.846;2023-10-13T06:14:36;16.20;99.90
50586;DHT22;36542;51.700;8.846;2023-10-13T06:17:20;16.20;99.90
50586;DHT22;36542;51.700;8.846;2023-10-13T06:20:05;16.20;99.90
50586;DHT22;36542;51.700;8.846;2023-10-13T06:22:50;16.20;99.90
50586;DHT22;36542;51.700;8.846;2023-10-13T06:25:34;16.30;99.90
50586;DHT22;36542;51.700;8.846;2023-10-13T06:28:18;16.30;99.90
50586;DHT22;36542;51.700;8.846;2023-10-13T06:31:04;16.40;99.90
50586;DHT22;36542;51.700;8.846;2023-10-13T06:33:35;16.40;99.90
50586;DHT22;36542;51.700;8.846;2023-10-13T06:36:04;16.30;99.90
50586;DHT22;36542;51.700;8.846;2023-10-13T06:38:37;16.30;99.90
50586;DHT22;36542;51.700;8.846;2023-10-13T06:41:03;16.30;99.90
50586;DHT22;36542;51.700;8.846;2023-10-13T06:43:36;16.30;99.90
50586;DHT22;36542;51.700;8.846;2023-10-13T06:46:09;16.20;99.90
50586;DHT22;36542;51.700;8.846;2023-10-13T06:48:40;16.20;99.90
50586;DHT22;36542;51.700;8.846;2023-10-13T06:51:06;16.20;99.90
50586;DHT22;36542;51.700;8.846;2023-10-13T06:53:50;16.20;99.90
50586;DHT22;36542;51.700;8.846;2023-10-13T06:56:21;16.20;99.90
50586;DHT22;36542;51.700;8.846;2023-10-13T06:58:51;16.20;99.90
50586;DHT22;36542;51.700;8.846;2023-10-13T07:01:16;16.20;99.90
50586;DHT22;36542;51.700;8.846;2023-10-13T07:03:48;16.20;99.90
50586;DHT22;36542;51.700;8.846;2023-10-13T07:06:20;16.30;99.90
50586;DHT22;36542;51.700;8.846;2023-10-13T07:08:46;16.30;99.90
50586;DHT22;36542;51.700;8.846;2023-10-13T07:11:18;16.30;99.90
50586;DHT22;36542;51.700;8.846;2023-10-13T07:14:01;16.30;99.90
50586;DHT22;36542;51.700;8.846;2023-10-13T07:19:23;16.30;99.90
50586;DHT22;36542;51.700;8.846;2023-10-13T07:21:50;16.30;99.90
50586;DHT22;36542;51.700;8.846;2023-10-13T07:24:24;16.30;99.90
50586;DHT22;36542;51.700;8.846;2023-10-13T07:26:50;16.30;99.90
50586;DHT22;36542;51.700;8.846;2023-10-13T07:29:22;16.30;99.90
50586;DHT22;36542;51.700;8.846;2023-10-13T07:31:50;16.40;99.90
50586;DHT22;36542;51.700;8.846;2023-10-13T07:34:16;16.40;99.90
50586;DHT22;36542;51.700;8.846;2023-10-13T07:36:55;16.50;99.90
50586;DHT22;36542;51.700;8.846;2023-10-13T07:39:26;16.60;99.90
50586;DHT22;36542;51.700;8.846;2023-10-13T07:41:53;16.70;99.90
50586;DHT22;36542;51.700;8.846;2023-10-13T07:44:29;16.70;99.90
50586;DHT22;36542;51.700;8.846;2023-10-13T07:46:59;16.80;99.90
50586;DHT22;36542;51.700;8.846;2023-10-13T07:49:36;16.80;99.90
50586;DHT22;36542;51.700;8.846;2023-10-13T07:52:05;16.80;99.90
50586;DHT22;36542;51.700;8.846;2023-10-13T07:54:47;16.80;99.90
50586;DHT22;36542;51.700;8.846;2023-10-13T07:57:14;16.90;99.90
50586;DHT22;36542;51.700;8.846;2023-10-13T07:59:40;16.90;99.90
50586;DHT22;36542;51.700;8.846;2023-10-13T08:02:15;17.00;99.90
50586;DHT22;36542;51.700;8.846;2023-10-13T08:05:00;17.10;99.90
50586;DHT22;36542;51.700;8.846;2023-10-13T08:07:26;17.20;99.90
50586;DHT22;36542;51.700;8.846;2023-10-13T08:09:54;17.30;99.90
50586;DHT22;36542;51.700;8.846;2023-10-13T08:12:24;17.40;99.90
50586;DHT22;36542;51.700;8.846;2023-10-13T08:14:50;17.50;99.90
50586;DHT22;36542;51.700;8.846;2023-10-13T08:17:34;17.60;99.90
50586;DHT22;36542;51.700;8.846;2023-10-13T08:20:00;17.80;99.90
50586;DHT22;36542;51.700;8.846;2023-10-13T08:22:36;17.90;99.90
50586;DHT22;36542;51.700;8.846;2023-10-13T08:25:04;17.90;99.90
50586;DHT22;36542;51.700;8.846;2023-10-13T08:28:02;18.00;99.90
50586;DHT22;36542;51.700;8.846;2023-10-13T08:30:50;18.10;99.90
50586;DHT22;36542;51.700;8.846;2023-10-13T08:33:19;18.20;99.90
50586;DHT22;36542;51.700;8.846;2023-10-13T08:35:49;18.20;99.90
50586;DHT22;36542;51.700;8.846;2023-10-13T08:38:41;18.40;99.90
50586;DHT22;36542;51.700;8.846;2023-10-13T08:41:16;18.60;99.90
50586;DHT22;36542;51.700;8.846;2023-10-13T08:43:44;18.80;99.90
50586;DHT22;36542;51.700;8.846;2023-10-13T08:46:16;18.80;99.90
50586;DHT22;36542;51.700;8.846;2023-10-13T08:48:58;18.80;99.90
50586;DHT22;36542;51.700;8.846;2023-10-13T08:51:43;18.70;99.90
50586;DHT22;36542;51.700;8.846;2023-10-13T08:54:12;18.90;99.90
50586;DHT22;36542;51.700;8.846;2023-10-13T08:56:47;18.90;99.90
50586;DHT22;36542;51.700;8.846;2023-10-13T08:59:20;19.00;99.90
50586;DHT22;36542;51.700;8.846;2023-10-13T09:01:58;19.00;99.90
50586;DHT22;36542;51.700;8.846;2023-10-13T09:04:42;19.00;99.90
50586;DHT22;36542;51.700;8.846;2023-10-13T09:07:09;19.10;99.90
50586;DHT22;36542;51.700;8.846;2023-10-13T09:14:39;19.40;99.90
50586;DHT22;36542;51.700;8.846;2023-10-13T09:17:19;19.50;99.90
50586;DHT22;36542;51.700;8.846;2023-10-13T09:19:48;19.70;99.90
50586;DHT22;36542;51.700;8.846;2023-10-13T09:22:28;19.70;99.90
50586;DHT22;36542;51.700;8.846;2023-10-13T09:25:03;19.80;99.90
50586;DHT22;36542;51.700;8.846;2023-10-13T09:27:39;19.70;99.90
50586;DHT22;36542;51.700;8.846;2023-10-13T09:30:05;19.70;99.90
50586;DHT22;36542;51.700;8.846;2023-10-13T09:32:47;19.70;99.90
50586;DHT22;36542;51.700;8.846;2023-10-13T09:35:20;19.70;99.90
50586;DHT22;36542;51.700;8.846;2023-10-13T09:37:50;19.70;99.90
50586;DHT22;36542;51.700;8.846;2023-10-13T09:40:17;19.90;99.90
50586;DHT22;36542;51.700;8.846;2023-10-13T09:42:55;20.00;99.90
50586;DHT22;36542;51.700;8.846;2023-10-13T09:45:31;20.20;99.90
50586;DHT22;36542;51.700;8.846;2023-10-13T09:48:10;20.40;99.90
50586;DHT22;36542;51.700;8.846;2023-10-13T09:50:46;20.90;99.90
50586;DHT22;36542;51.700;8.846;2023-10-13T09:53:14;21.20;99.90
50586;DHT22;36542;51.700;8.846;2023-10-13T09:55:57;21.10;99.90
50586;DHT22;36542;51.700;8.846;2023-10-13T09:58:28;21.60;99.90
50586;DHT22;36542;51.700;8.846;2023-10-13T10:01:03;22.00;99.90
50586;DHT22;36542;51.700;8.846;2023-10-13T10:03:46;22.00;99.90
50586;DHT22;36542;51.700;8.846;2023-10-13T10:06:33;22.20;99.90
50586;DHT22;36542;51.700;8.846;2023-10-13T10:09:09;22.40;99.90
50586;DHT22;36542;51.700;8.846;2023-10-13T10:17:41;22.80;99.90
50586;DHT22;36542;51.700;8.846;2023-10-13T10:20:07;22.80;99.90
50586;DHT22;36542;51.700;8.846;2023-10-13T10:22:59;22.80;99.90
50586;DHT22;36542;51.700;8.846;2023-10-13T10:25:30;22.60;99.90
50586;DHT22;36542;51.700;8.846;2023-10-13T10:28:06;22.70;99.90
50586;DHT22;36542;51.700;8.846;2023-10-13T10:30:37;22.50;99.90
50586;DHT22;36542;51.700;8.846;2023-10-13T10:33:08;22.50;99.90
50586;DHT22;36542;51.700;8.846;2023-10-13T10:35:39;22.50;99.90
50586;DHT22;36542;51.700;8.846;2023-10-13T10:38:15;22.40;99.90
50586;DHT22;36542;51.700;8.846;2023-10-13T10:40:54;22.50;99.90
50586;DHT22;36542;51.700;8.846;2023-10-13T10:46:26;22.70;99.90
50586;DHT22;36542;51.700;8.846;2023-10-13T10:48:53;22.80;99.90
50586;DHT22;36542;51.700;8.846;2023-10-13T10:51:26;22.70;99.90
50586;DHT22;36542;51.700;8.846;2023-10-13T10:53:57;22.60;99.90
50586;DHT22;36542;51.700;8.846;2023-10-13T10:56:27;22.50;99.90
50586;DHT22;36542;51.700;8.846;2023-10-13T10:59:02;22.60;99.90
50586;DHT22;36542;51.700;8.846;2023-10-13T11:01:30;22.90;99.90
50586;DHT22;36542;51.700;8.846;2023-10-13T11:04:00;22.80;99.90
50586;DHT22;36542;51.700;8.846;2023-10-13T11:06:46;22.60;99.90
50586;DHT22;36542;51.700;8.846;2023-10-13T11:09:13;22.50;99.90
50586;DHT22;36542;51.700;8.846;2023-10-13T11:11:55;22.50;99.90
50586;DHT22;36542;51.700;8.846;2023-10-13T11:14:26;22.70;99.90
50586;DHT22;36542;51.700;8.846;2023-10-13T11:16:54;22.80;99.90
50586;DHT22;36542;51.700;8.846;2023-10-13T11:19:21;22.60;99.90
50586;DHT22;36542;51.700;8.846;2023-10-13T11:21:52;22.40;99.90
50586;DHT22;36542;51.700;8.846;2023-10-13T11:24:18;22.40;99.90
50586;DHT22;36542;51.700;8.846;2023-10-13T11:26:47;22.40;99.90
50586;DHT22;36542;51.700;8.846;2023-10-13T11:29:19;22.50;99.90
50586;DHT22;36542;51.700;8.846;2023-10-13T11:31:48;22.40;99.90
50586;DHT22;36542;51.700;8.846;2023-10-13T11:34:24;22.10;99.90
50586;DHT22;36542;51.700;8.846;2023-10-13T11:36:51;21.90;99.90
50586;DHT22;36542;51.700;8.846;2023-10-13T11:39:16;21.90;99.90
50586;DHT22;36542;51.700;8.846;2023-10-13T11:41:50;21.90;99.90
50586;DHT22;36542;51.700;8.846;2023-10-13T11:44:19;22.00;99.90
50586;DHT22;36542;51.700;8.846;2023-10-13T11:46:45;22.00;99.90
50586;DHT22;36542;51.700;8.846;2023-10-13T11:49:13;22.00;99.90
50586;DHT22;36542;51.700;8.846;2023-10-13T11:51:42;21.90;99.90
50586;DHT22;36542;51.700;8.846;2023-10-13T11:54:14;22.00;99.90
50586;DHT22;36542;51.700;8.846;2023-10-13T11:56:41;22.10;99.90
50586;DHT22;36542;51.700;8.846;2023-10-13T11:59:06;22.10;99.90
50586;DHT22;36542;51.700;8.846;2023-10-13T12:01:42;22.20;99.90
50586;DHT22;36542;51.700;8.846;2023-10-13T12:04:26;22.30;99.90
50586;DHT22;36542;51.700;8.846;2023-10-13T12:07:14;22.50;99.90
50586;DHT22;36542;51.700;8.846;2023-10-13T12:09:45;22.30;99.90
50586;DHT22;36542;51.700;8.846;2023-10-13T12:12:19;22.30;99.90
50586;DHT22;36542;51.700;8.846;2023-10-13T12:14:45;22.30;99.90
50586;DHT22;36542;51.700;8.846;2023-10-13T12:17:25;22.40;99.90
50586;DHT22;36542;51.700;8.846;2023-10-13T12:19:54;22.40;99.90
50586;DHT22;36542;51.700;8.846;2023-10-13T12:22:20;22.50;99.90
50586;DHT22;36542;51.700;8.846;2023-10-13T12:25:01;22.40;99.90
50586;DHT22;36542;51.700;8.846;2023-10-13T12:27:30;22.40;99.90
50586;DHT22;36542;51.700;8.846;2023-10-13T12:30:11;22.20;99.90
50586;DHT22;36542;51.700;8.846;2023-10-13T12:32:42;22.20;99.90
50586;DHT22;36542;51.700;8.846;2023-10-13T12:35:19;22.30;99.90
50586;DHT22;36542;51.700;8.846;2023-10-13T12:38:01;22.30;99.90
50586;DHT22;36542;51.700;8.846;2023-10-13T12:40:53;22.20;99.90
50586;DHT22;36542;51.700;8.846;2023-10-13T12:43:37;22.10;99.90
50586;DHT22;36542;51.700;8.846;2023-10-13T12:46:21;22.10;99.90
50586;DHT22;36542;51.700;8.846;2023-10-13T12:49:06;22.20;99.90
50586;DHT22;36542;51.700;8.846;2023-10-13T12:52:01;22.10;99.90
50586;DHT22;36542;51.700;8.846;2023-10-13T12:54:27;22.10;99.90
50586;DHT22;36542;51.700;8.846;2023-10-13T12:57:00;22.10;99.90
50586;DHT22;36542;51.700;8.846;2023-10-13T12:59:26;22.10;99.90
50586;DHT22;36542;51.700;8.846;2023-10-13T13:01:52;22.10;99.90
50586;DHT22;36542;51.700;8.846;2023-10-13T13:04:18;22.10;99.90
50586;DHT22;36542;51.700;8.846;2023-10-13T13:06:46;22.00;99.90
50586;DHT22;36542;51.700;8.846;2023-10-13T13:09:11;22.00;99.90
50586;DHT22;36542;51.700;8.846;2023-10-13T13:11:37;22.00;99.90
50586;DHT22;36542;51.700;8.846;2023-10-13T13:14:05;22.00;99.90
50586;DHT22;36542;51.700;8.846;2023-10-13T13:16:33;21.90;99.90
50586;DHT22;36542;51.700;8.846;2023-10-13T13:18:59;21.90;99.90
50586;DHT22;36542;51.700;8.846;2023-10-13T13:21:28;21.90;99.90
50586;DHT22;36542;51.700;8.846;2023-10-13T13:23:54;21.90;99.90
50586;DHT22;36542;51.700;8.846;2023-10-13T13:26:20;21.90;99.90
50586;DHT22;36542;51.700;8.846;2023-10-13T13:28:47;22.00;99.90
50586;DHT22;36542;51.700;8.846;2023-10-13T13:31:20;22.10;99.90
50586;DHT22;36542;51.700;8.846;2023-10-13T13:33:51;22.20;99.90
50586;DHT22;36542;51.700;8.846;2023-10-13T13:36:17;22.50;99.90
50586;DHT22;36542;51.700;8.846;2023-10-13T13:38:43;22.80;99.90
50586;DHT22;36542;51.700;8.846;2023-10-13T13:41:15;23.00;99.90
50586;DHT22;36542;51.700;8.846;2023-10-13T13:43:45;23.20;99.90
50586;DHT22;36542;51.700;8.846;2023-10-13T13:46:24;23.30;99.90
50586;DHT22;36542;51.700;8.846;2023-10-13T13:48:50;23.30;99.90
50586;DHT22;36542;51.700;8.846;2023-10-13T13:51:17;23.30;99.90
50586;DHT22;36542;51.700;8.846;2023-10-13T13:53:53;23.30;99.90
50586;DHT22;36542;51.700;8.846;2023-10-13T13:56:18;23.20;99.90
50586;DHT22;36542;51.700;8.846;2023-10-13T13:58:48;22.80;99.90
50586;DHT22;36542;51.700;8.846;2023-10-13T14:01:16;22.70;99.90
50586;DHT22;36542;51.700;8.846;2023-10-13T14:03:48;22.50;99.90
50586;DHT22;36542;51.700;8.846;2023-10-13T14:06:17;22.40;99.90
50586;DHT22;36542;51.700;8.846;2023-10-13T14:08:54;22.30;99.90
50586;DHT22;36542;51.700;8.846;2023-10-13T14:11:21;22.30;99.90
50586;DHT22;36542;51.700;8.846;2023-10-13T14:13:48;22.30;99.90
50586;DHT22;36542;51.700;8.846;2023-10-13T14:16:18;22.30;99.90
50586;DHT22;36542;51.700;8.846;2023-10-13T14:18:49;22.20;99.90
50586;DHT22;36542;51.700;8.846;2023-10-13T14:21:15;22.20;99.90
50586;DHT22;36542;51.700;8.846;2023-10-13T14:23:48;22.20;99.90
50586;DHT22;36542;51.700;8.846;2023-10-13T14:26:17;22.10;99.90
50586;DHT22;36542;51.700;8.846;2023-10-13T14:28:47;22.10;99.90
50586;DHT22;36542;51.700;8.846;2023-10-13T14:31:28;22.20;99.90
50586;DHT22;36542;51.700;8.846;2023-10-13T14:33:54;22.20;99.90
50586;DHT22;36542;51.700;8.846;2023-10-13T14:36:19;22.10;99.90
50586;DHT22;36542;51.700;8.846;2023-10-13T14:38:49;22.10;99.90
50586;DHT22;36542;51.700;8.846;2023-10-13T14:41:18;22.10;99.90
50586;DHT22;36542;51.700;8.846;2023-10-13T14:43:44;22.10;99.90
50586;DHT22;36542;51.700;8.846;2023-10-13T14:46:16;22.10;99.90
50586;DHT22;36542;51.700;8.846;2023-10-13T14:48:43;22.00;99.90
50586;DHT22;36542;51.700;8.846;2023-10-13T14:51:12;22.00;99.90
50586;DHT22;36542;51.700;8.846;2023-10-13T14:53:44;21.90;99.90
50586;DHT22;36542;51.700;8.846;2023-10-13T14:56:11;21.80;99.90
50586;DHT22;36542;51.700;8.846;2023-10-13T14:58:37;21.80;99.90
50586;DHT22;36542;51.700;8.846;2023-10-13T15:01:21;21.80;99.90
50586;DHT22;36542;51.700;8.846;2023-10-13T15:03:49;21.70;99.90
50586;DHT22;36542;51.700;8.846;2023-10-13T15:06:22;21.70;99.90
50586;DHT22;36542;51.700;8.846;2023-10-13T15:08:55;21.70;99.90
50586;DHT22;36542;51.700;8.846;2023-10-13T15:11:21;21.60;99.90
50586;DHT22;36542;51.700;8.846;2023-10-13T15:13:55;21.50;99.90
50586;DHT22;36542;51.700;8.846;2023-10-13T15:16:25;21.50;99.90
50586;DHT22;36542;51.700;8.846;2023-10-13T15:18:52;21.40;99.90
50586;DHT22;36542;51.700;8.846;2023-10-13T15:21:26;21.30;99.90
50586;DHT22;36542;51.700;8.846;2023-10-13T15:24:00;21.30;99.90
50586;DHT22;36542;51.700;8.846;2023-10-13T15:26:29;21.20;99.90
50586;DHT22;36542;51.700;8.846;2023-10-13T15:28:55;21.20;99.90
50586;DHT22;36542;51.700;8.846;2023-10-13T15:31:26;21.20;99.90
50586;DHT22;36542;51.700;8.846;2023-10-13T15:33:55;21.20;99.90
50586;DHT22;36542;51.700;8.846;2023-10-13T15:36:24;21.10;99.90
50586;DHT22;36542;51.700;8.846;2023-10-13T15:38:50;21.10;99.90
50586;DHT22;36542;51.700;8.846;2023-10-13T15:41:28;21.20;99.90
50586;DHT22;36542;51.700;8.846;2023-10-13T15:43:54;21.10;99.90
50586;DHT22;36542;51.700;8.846;2023-10-13T15:46:24;21.00;99.90
50586;DHT22;36542;51.700;8.846;2023-10-13T15:48:51;21.00;99.90
50586;DHT22;36542;51.700;8.846;2023-10-13T15:51:17;21.10;99.90
50586;DHT22;36542;51.700;8.846;2023-10-13T15:53:44;21.00;99.90
50586;DHT22;36542;51.700;8.846;2023-10-13T15:56:13;21.10;99.90
50586;DHT22;36542;51.700;8.846;2023-10-13T15:58:48;21.10;99.90
50586;DHT22;36542;51.700;8.846;2023-10-13T16:01:15;21.00;99.90
50586;DHT22;36542;51.700;8.846;2023-10-13T16:03:42;21.00;99.90
50586;DHT22;36542;51.700;8.846;2023-10-13T16:06:17;21.00;99.90
50586;DHT22;36542;51.700;8.846;2023-10-13T16:08:43;21.00;99.90
50586;DHT22;36542;51.700;8.846;2023-10-13T16:11:11;21.10;99.90
50586;DHT22;36542;51.700;8.846;2023-10-13T16:13:43;21.10;99.90
50586;DHT22;36542;51.700;8.846;2023-10-13T16:16:19;21.00;99.90
50586;DHT22;36542;51.700;8.846;2023-10-13T16:18:48;21.00;99.90
50586;DHT22;36542;51.700;8.846;2023-10-13T16:21:14;20.90;99.90
50586;DHT22;36542;51.700;8.846;2023-10-13T16:23:43;20.90;99.90